Flight Track Log - Related Links

Times and Time Zones

All times are in EST time to prevent confusion due to time zone crossing. See the SWA3093 flight status page for this flight to view local times or setup timezone preferences in your user account.


Time Position Orientation Groundspeed Altitude Reporting Facility
EST Latitude Longitude Course Direction KTS MPH feet Rate Location/Type
Sat 08:58:10 AM 33.4333 -112.0333 270° West 175 201 2,000  Level Phoenix TRACON
Sat 08:58:40 AM 33.4333 -112.0667 270° West 165 190 2,800 1,780 Climbing Phoenix TRACON
Sat 08:59:41 AM 33.4667 -112.1167 309° West 236 272 4,700 2,087 Climbing Phoenix TRACON
Sat 09:00:35 AM 33.5167 -112.0833 29° Northeast 281 323 6,800 2,772 Climbing Phoenix TRACON
Sat 09:02:06 AM 33.6214 -112.0011 33° Northeast 301 346 11,400 3,039 Climbing Albuquerque Center
Sat 09:03:07 AM 33.6978 -111.9431 32° Northeast 322 371 14,500 2,244 Climbing Albuquerque Center
Sat 09:04:09 AM 33.7769 -111.8700 37° Northeast 363 418 16,000 2,311 Climbing Albuquerque Center
Sat 09:05:09 AM 33.8344 -111.7347 63° Northeast 400 460 19,200 2,380 Climbing Albuquerque Center
Sat 09:06:10 AM 33.8819 -111.6325 61° Northeast 422 486 20,800 1,884 Climbing Albuquerque Center
Sat 09:07:10 AM 33.9519 -111.4733 62° Northeast 455 524 23,000 2,182 Climbing Albuquerque Center
Sat 09:08:11 AM 34.0128 -111.3328 62° Northeast 474 545 25,200 2,033 Climbing Albuquerque Center
Sat 09:09:11 AM 34.0750 -111.1897 62° Northeast 480 552 27,100 1,636 Climbing Albuquerque Center
Sat 09:10:12 AM 34.1389 -111.0414 62° Northeast 493 567 28,500 1,438 Climbing Albuquerque Center
Sat 09:11:12 AM 34.2050 -110.8892 62° Northeast 507 583 30,000 1,339 Climbing Albuquerque Center
Sat 09:12:13 AM 34.2719 -110.7317 63° Northeast 521 600 31,200 1,190 Climbing Albuquerque Center
Sat 09:13:13 AM 34.3419 -110.5725 62° Northeast 532 612 32,400 1,388 Climbing Albuquerque Center
Sat 09:14:14 AM 34.4161 -110.3972 63° Northeast 539 620 34,000 1,279 Climbing Albuquerque Center
Sat 09:15:15 AM 34.4842 -110.2336 63° Northeast 545 627 35,000 496 Climbing Albuquerque Center
Sat 09:16:15 AM 34.5500 -110.0775 63° Northeast 544 626 35,000  Level Albuquerque Center
Sat 09:17:16 AM 34.6147 -109.9250 63° Northeast 537 618 35,000  Level Albuquerque Center
Sat 09:18:16 AM 34.6881 -109.7461 63° Northeast 532 612 35,000  Level Albuquerque Center
Sat 09:19:17 AM 34.7517 -109.5944 63° Northeast 528 608 35,000  Level Albuquerque Center
Sat 09:20:18 AM 34.8153 -109.4408 63° Northeast 530 610 35,000  Level Albuquerque Center
Sat 09:21:18 AM 34.8894 -109.2625 63° Northeast 530 610 35,000 149 Level Albuquerque Center
Sat 09:22:19 AM 34.9533 -109.1072 63° Northeast 534 615 35,300 744 Climbing Albuquerque Center
Sat 09:23:19 AM 35.0158 -108.9525 64° Northeast 534 615 36,500 843 Climbing Albuquerque Center
Sat 09:24:20 AM 35.0911 -108.7658 64° Northeast 542 624 37,000 541 Climbing Albuquerque Center
Sat 09:25:21 AM 35.1578 -108.6053 63° Northeast 551 634 37,600 942 Climbing Albuquerque Center
Sat 09:26:21 AM 35.2225 -108.4392 64° Northeast 560 644 38,900 694 Climbing Albuquerque Center
Sat 09:27:22 AM 35.2989 -108.2506 64° Northeast 558 642 39,000 50 Climbing Albuquerque Center
Sat 09:28:22 AM 35.3628 -108.0881 64° Northeast 557 641 39,000  Level Albuquerque Center
Sat 09:29:23 AM 35.4283 -107.9228 64° Northeast 562 647 39,000  Level Albuquerque Center
Sat 09:30:24 AM 35.5033 -107.7317 64° Northeast 561 646 39,000  Level Albuquerque Center
Sat 09:31:24 AM 35.5681 -107.5669 64° Northeast 559 643 39,000  Level Albuquerque Center
Sat 09:32:25 AM 35.6317 -107.3992 65° Northeast 565 650 39,000  Level Albuquerque Center
Sat 09:33:25 AM 35.7083 -107.2047 64° Northeast 566 651 39,000  Level Albuquerque Center
Sat 09:34:26 AM 35.7758 -107.0336 64° Northeast 576 663 39,000  Level Albuquerque Center
Sat 09:35:27 AM 35.8383 -106.8653 65° Northeast 569 655 39,000  Level Albuquerque Center
Sat 09:36:27 AM 35.9122 -106.6686 65° Northeast 568 654 39,000  Level Albuquerque Center
Sat 09:37:28 AM 35.9797 -106.4967 64° Northeast 572 658 39,000  Level Albuquerque Center
Sat 09:38:29 AM 36.0456 -106.3161 66° East 572 658 39,000 -50 Level Albuquerque Center
Sat 09:39:29 AM 36.1122 -106.1383 65° Northeast 567 652 38,900  Descending Albuquerque Center
Sat 09:40:30 AM 36.1786 -105.9603 65° Northeast 566 651 39,000 49 Climbing Albuquerque Center
Sat 09:41:31 AM 36.2436 -105.7833 65° Northeast 563 648 39,000  Level Albuquerque Center
Sat 09:42:31 AM 36.3092 -105.6044 66° East 565 650 39,000  Level Albuquerque Center
Sat 09:43:32 AM 36.3778 -105.4211 65° Northeast 567 652 39,000  Level Albuquerque Center
Sat 09:44:33 AM 36.4419 -105.2425 66° East 564 649 39,000  Level Albuquerque Center
Sat 09:45:33 AM 36.5067 -105.0625 66° East 563 648 39,000  Level Albuquerque Center
Sat 09:46:34 AM 36.5714 -104.8836 66° East 562 647 39,000  Level Albuquerque Center
Sat 09:47:35 AM 36.6344 -104.7042 66° East 561 646 39,000  Level Albuquerque Center
Sat 09:48:36 AM 36.6986 -104.5231 66° East 563 648 39,000  Level Albuquerque Center
Sat 09:49:36 AM 36.7647 -104.3419 65° Northeast 558 642 39,000  Level Albuquerque Center
Sat 09:50:37 AM 36.8242 -104.1717 66° East 560 644 39,000  Level Albuquerque Center
Sat 09:51:38 AM 36.8839 -104.0022 66° East 560 644 39,000  Level Albuquerque Center
Sat 09:52:39 AM 36.9519 -103.8019 67° East 562 647 39,000  Level Albuquerque Center
Sat 09:53:39 AM 37.0125 -103.6294 66° East 567 652 39,000  Level Albuquerque Center
Sat 09:54:40 AM 37.0808 -103.4278 67° East 567 652 39,000  Level Albuquerque Center
Sat 09:55:41 AM 37.1400 -103.2547 67° East 566 651 39,000  Level Albuquerque Center
Sat 09:56:42 AM 37.1989 -103.0806 67° East 568 654 39,000  Level Albuquerque Center
Sat 09:57:43 AM 37.2669 -102.8756 67° East 570 656 39,000  Level Albuquerque Center
Sat 09:58:44 AM 37.3272 -102.7008 67° East 570 656 39,000  Level Albuquerque Center
Sat 09:59:40 AM 37.3839 -102.5206 68° East 570 656 39,000  Level Kansas City Center
Sat 10:00:41 AM 37.4422 -102.3442 67° East 570 656 39,000  Level Kansas City Center
Sat 10:01:42 AM 37.4997 -102.1672 68° East 570 656 39,000  Level Kansas City Center
Sat 10:02:44 AM 37.5683 -101.9617 67° East 570 656 39,000  Level Kansas City Center
Sat 10:03:45 AM 37.6244 -101.7850 68° East 570 656 39,000  Level Kansas City Center
Sat 10:04:46 AM 37.6908 -101.5786 68° East 570 656 39,000  Level Kansas City Center
Sat 10:05:47 AM 37.7478 -101.4036 68° East 565 650 39,000  Level Kansas City Center
Sat 10:06:49 AM 37.8033 -101.2269 68° East 564 649 39,000  Level Kansas City Center
Sat 10:07:50 AM 37.8689 -101.0197 68° East 564 649 39,000  Level Kansas City Center
Sat 10:08:51 AM 37.9253 -100.8400 68° East 564 649 39,000  Level Kansas City Center
Sat 10:09:52 AM 37.9814 -100.6603 68° East 567 652 39,000  Level Kansas City Center
Sat 10:10:54 AM 38.0461 -100.4511 68° East 567 652 39,000  Level Kansas City Center
Sat 10:11:55 AM 38.0997 -100.2708 69° East 567 652 39,000  Level Kansas City Center
Sat 10:12:56 AM 38.1550 -100.0908 69° East 568 654 39,000  Level Kansas City Center
Sat 10:13:57 AM 38.2181 -99.8819 69° East 568 654 39,000  Level Kansas City Center
Sat 10:14:58 AM 38.2719 -99.7031 69° East 568 654 39,000  Level Kansas City Center
Sat 10:16:00 AM 38.3253 -99.5222 69° East 568 654 39,000  Level Kansas City Center
Sat 10:17:01 AM 38.3789 -99.3414 69° East 568 654 39,000  Level Kansas City Center
Sat 10:18:02 AM 38.4361 -99.1522 69° East 568 654 39,000  Level Kansas City Center
Sat 10:19:04 AM 38.5008 -98.9269 70° East 566 651 39,000  Level Kansas City Center
Sat 10:20:05 AM 38.5589 -98.7333 69° East 577 664 39,000  Level Kansas City Center
Sat 10:21:06 AM 38.6133 -98.5442 70° East 569 655 39,000  Level Kansas City Center
Sat 10:22:08 AM 38.6683 -98.3542 70° East 568 654 39,000  Level Kansas City Center
Sat 10:23:09 AM 38.7222 -98.1653 70° East 566 651 39,000  Level Kansas City Center
Sat 10:24:10 AM 38.7761 -97.9744 70° East 567 652 39,000  Level Kansas City Center
Sat 10:25:12 AM 38.8336 -97.7742 70° East 564 649 39,000  Level Kansas City Center
Sat 10:26:13 AM 38.8828 -97.5911 71° East 564 649 39,000  Level Kansas City Center
Sat 10:27:14 AM 38.9350 -97.4008 71° East 572 658 39,000  Level Kansas City Center
Sat 10:28:16 AM 38.9919 -97.1939 70° East 563 648 39,000  Level Kansas City Center
Sat 10:29:17 AM 39.0428 -97.0128 70° East 563 648 39,000  Level Kansas City Center
Sat 10:30:18 AM 39.0997 -96.7981 71° East 564 649 39,000  Level Kansas City Center
Sat 10:31:19 AM 39.1486 -96.6147 71° East 564 649 39,000  Level Kansas City Center
Sat 10:32:21 AM 39.2044 -96.3989 71° East 566 651 39,000  Level Kansas City Center
Sat 10:33:22 AM 39.2528 -96.2131 71° East 567 652 39,000  Level Kansas City Center
Sat 10:34:23 AM 39.3006 -96.0289 71° East 567 652 39,000  Level Kansas City Center
Sat 10:35:25 AM 39.3578 -95.8097 71° East 572 658 39,000  Level Kansas City Center
Sat 10:36:26 AM 39.4069 -95.6233 71° East 570 656 39,000  Level Kansas City Center
Sat 10:37:27 AM 39.4583 -95.4106 73° East 571 657 39,000  Level Kansas City Center
Sat 10:38:28 AM 39.5111 -95.2092 71° East 567 652 39,000  Level Kansas City Center
Sat 10:39:30 AM 39.5567 -95.0261 72° East 568 654 39,000  Level Kansas City Center
Sat 10:40:31 AM 39.6039 -94.8406 72° East 565 650 39,000  Level Kansas City Center
Sat 10:41:32 AM 39.6564 -94.6228 73° East 565 650 39,000  Level Kansas City Center
Sat 10:42:34 AM 39.7028 -94.4372 72° East 565 650 39,000  Level Kansas City Center
Sat 10:43:35 AM 39.7475 -94.2508 73° East 565 650 39,000  Level Kansas City Center
Sat 10:44:36 AM 39.8003 -94.0333 72° East 565 650 39,000  Level Kansas City Center
Sat 10:45:38 AM 39.8456 -93.8397 73° East 565 650 39,000  Level Kansas City Center
Sat 10:46:39 AM 39.8922 -93.6458 73° East 565 650 39,000  Level Kansas City Center
Sat 10:47:40 AM 39.9367 -93.4497 73° East 566 651 39,000  Level Kansas City Center
Sat 10:48:42 AM 39.9833 -93.2536 73° East 568 654 39,000  Level Kansas City Center
Sat 10:49:43 AM 40.0283 -93.0575 73° East 570 656 39,000  Level Kansas City Center
Sat 10:50:45 AM 40.0775 -92.8386 74° East 570 656 39,000  Level Kansas City Center
Sat 10:51:46 AM 40.1283 -92.6156 73° East 571 657 39,000  Level Kansas City Center
Sat 10:52:47 AM 40.1697 -92.4228 74° East 572 658 39,000  Level Kansas City Center
Sat 10:53:49 AM 40.2056 -92.2342 76° East 571 657 39,000  Level Kansas City Center
Sat 10:54:50 AM 40.2442 -92.0356 76° East 571 657 39,000  Level Kansas City Center
Sat 10:55:52 AM 40.3069 -91.8067 70° East 565 650 39,000 -244 Level Kansas City Center
Sat 10:56:53 AM 40.3594 -91.6158 70° East 565 650 38,500 -1,623 Descending Kansas City Center
Sat 10:57:54 AM 40.4097 -91.4253 71° East 560 644 35,700 -2,829 Descending Kansas City Center
Sat 10:58:56 AM 40.4547 -91.2522 71° East 550 633 32,700 -2,390 Descending Kansas City Center
Sat 10:59:52 AM 40.5100 -91.0664 69° East 547 629 31,000 -872 Descending Chicago Center
Sat 11:00:53 AM 40.5589 -90.8803 71° East 541 623 31,000 -732 Level Chicago Center
Sat 11:01:55 AM 40.6058 -90.6928 72° East 541 623 29,500 -1,659 Descending Chicago Center
Sat 11:02:56 AM 40.6517 -90.5106 72° East 528 608 27,600 -1,707 Descending Chicago Center
Sat 11:03:58 AM 40.7103 -90.2931 70° East 523 602 26,000 -1,220 Descending Chicago Center
Sat 11:04:59 AM 40.7556 -90.1406 69° East 515 593 25,100 -1,024 Descending Chicago Center
Sat 11:06:01 AM 40.8214 -89.9358 67° East 508 585 23,900 -1,073 Descending Chicago Center
Sat 11:07:02 AM 40.8839 -89.7733 63° Northeast 498 573 22,900 -1,073 Descending Chicago Center
Sat 11:08:04 AM 40.9472 -89.6125 62° Northeast 494 568 21,700 -1,839 Descending Chicago Center
Sat 11:09:06 AM 41.0114 -89.4572 61° Northeast 484 557 19,100 -2,390 Descending Chicago Center
Sat 11:10:07 AM 41.0697 -89.3078 63° Northeast 460 529 16,800 -2,390 Descending Chicago Center
Sat 11:11:09 AM 41.1233 -89.1667 63° Northeast 440 506 14,200 -2,537 Descending Chicago Center
Sat 11:12:10 AM 41.1789 -89.0250 62° Northeast 432 497 11,600 -1,805 Descending Chicago Center
Sat 11:13:12 AM 41.2286 -88.8931 63° Northeast 404 465 10,500 -871 Descending Chicago Center
Sat 11:14:14 AM 41.2767 -88.7650 63° Northeast 327 376 9,800 -878 Descending Chicago Center
Sat 11:15:15 AM 41.3225 -88.6600 60° Northeast 305 351 8,700 -1,024 Descending Chicago Center
Sat 11:16:17 AM 41.3628 -88.5628 61° Northeast 299 344 7,700 -1,171 Descending Chicago Center
Sat 11:17:18 AM 41.4028 -88.4692 60° Northeast 291 335 6,300 -829 Descending Chicago Center
Sat 11:18:20 AM 41.4444 -88.3686 61° Northeast 286 329 6,000 -629 Descending Chicago Center
Sat 11:19:22 AM 41.4822 -88.2783 61° Northeast 282 325 5,000 -976 Descending Chicago Center
Sat 11:20:23 AM 41.5192 -88.1903 61° Northeast 273 314 4,000 -488 Descending Chicago Center
Sat 11:21:25 AM 41.5583 -88.0961 61° Northeast 272 313 4,000 -49 Level Chicago Center
Sat 11:22:26 AM 41.5922 -88.0164 60° Northeast 250 288 3,900 -49 Descending Chicago Center
Sat 11:23:28 AM 41.6286 -87.9478 55° Northeast 220 253 3,900 -97 Level Chicago Center
Sat 11:24:30 AM 41.6719 -87.8936 43° Northeast 198 228 3,700 -585 Descending Chicago Center
Sat 11:25:31 AM 41.7067 -87.8500 43° Northeast 168 193 2,700 -878 Descending Chicago Center
Sat 11:26:33 AM 41.7353 -87.8144 43° Northeast 142 163 1,900 -780 Descending Chicago Center
Sat 11:27:34 AM 41.7631 -87.7792 43° Northeast 128 147 1,100 -585 Descending Chicago Center
Sat 11:28:36 AM 41.7822 -87.7533 45° Northeast 124 143 700 -387 Descending Chicago Center
Sat 11:30:00 AM 41.7833 -87.7500 37° Northeast  Level FlightAware Approximate

Login

Don't have an account? Register now (free) for customized features, flight alerts, and more!